sensor_id;sensor_type;location;lat;lon;timestamp;pressure;altitude;pressure_sealevel;temperature;humidity
44531;BME280;30240;47.418;0.700;2023-08-07T00:00:24;101007.1533203125;;;13.94;79.2
44531;BME280;30240;47.418;0.700;2023-08-07T00:02:49;101007.1533203125;;;13.94;79.2
44531;BME280;30240;47.418;0.700;2023-08-07T00:05:14;101010.99243164062;;;13.84;79.47
44531;BME280;30240;47.418;0.700;2023-08-07T00:07:39;101014.42260742188;;;13.94;79.35
44531;BME280;30240;47.418;0.700;2023-08-07T00:10:04;101014.78271484375;;;13.94;79.25
44531;BME280;30240;47.418;0.700;2023-08-07T00:12:29;101019.53735351562;;;13.83;79.63
44531;BME280;30240;47.418;0.700;2023-08-07T00:14:54;101019.53735351562;;;13.83;79.63
44531;BME280;30240;47.418;0.700;2023-08-07T00:17:19;101025.79956054688;;;13.85;79.66
44531;BME280;30240;47.418;0.700;2023-08-07T00:19:44;101027.685546875;;;13.84;79.9
44531;BME280;30240;47.418;0.700;2023-08-07T00:22:09;101028.54614257812;;;13.78;80.03
44531;BME280;30240;47.418;0.700;2023-08-07T00:24:33;101026.20239257812;;;13.76;80.26
44531;BME280;30240;47.418;0.700;2023-08-07T00:26:58;101026.20239257812;;;13.76;80.26
44531;BME280;30240;47.418;0.700;2023-08-07T00:29:23;101021.38061523438;;;13.74;80.26
44531;BME280;30240;47.418;0.700;2023-08-07T00:31:48;101022.412109375;;;13.7;80.26
44531;BME280;30240;47.418;0.700;2023-08-07T00:34:13;101018.65844726562;;;13.69;80.38
44531;BME280;30240;47.418;0.700;2023-08-07T00:36:38;101017.44384765625;;;13.67;80.44
44531;BME280;30240;47.418;0.700;2023-08-07T00:39:04;101017.44384765625;;;13.67;80.44
44531;BME280;30240;47.418;0.700;2023-08-07T00:41:28;101020.42236328125;;;13.62;80.59
44531;BME280;30240;47.418;0.700;2023-08-07T00:43:53;101019.94018554688;;;13.58;80.74
44531;BME280;30240;47.418;0.700;2023-08-07T00:46:19;101019.90356445312;;;13.58;80.57
44531;BME280;30240;47.418;0.700;2023-08-07T00:48:44;101019.95239257812;;;13.48;80.78
44531;BME280;30240;47.418;0.700;2023-08-07T00:51:09;101014.06860351562;;;13.42;81.01
44531;BME280;30240;47.418;0.700;2023-08-07T00:53:37;101014.06860351562;;;13.42;81.01
44531;BME280;30240;47.418;0.700;2023-08-07T00:55:59;101009.00268554688;;;13.41;81.02
44531;BME280;30240;47.418;0.700;2023-08-07T00:58:24;101007.56225585938;;;13.42;81.15
44531;BME280;30240;47.418;0.700;2023-08-07T01:00:48;101002.54516601562;;;13.45;81.07
44531;BME280;30240;47.418;0.700;2023-08-07T01:03:13;101003.62548828125;;;13.35;81.22
44531;BME280;30240;47.418;0.700;2023-08-07T01:05:39;101003.62548828125;;;13.35;81.22
44531;BME280;30240;47.418;0.700;2023-08-07T01:08:04;100999.15771484375;;;13.22;81.42
44531;BME280;30240;47.418;0.700;2023-08-07T01:10:34;100995.23315429688;;;13.18;81.44
44531;BME280;30240;47.418;0.700;2023-08-07T01:13:05;100998.71215820312;;;13.15;81.51
44531;BME280;30240;47.418;0.700;2023-08-07T01:15:22;100994.47631835938;;;13.1;81.61
44531;BME280;30240;47.418;0.700;2023-08-07T01:17:44;100994.47631835938;;;13.1;81.61
44531;BME280;30240;47.418;0.700;2023-08-07T01:20:09;100995.08056640625;;;13.03;81.78
44531;BME280;30240;47.418;0.700;2023-08-07T01:22:33;100991.0888671875;;;12.99;81.66
44531;BME280;30240;47.418;0.700;2023-08-07T01:24:58;100993.32885742188;;;12.92;81.92
44531;BME280;30240;47.418;0.700;2023-08-07T01:27:35;100992.98706054688;;;12.94;81.78
44531;BME280;30240;47.418;0.700;2023-08-07T01:29:53;100992.98706054688;;;12.94;81.78
44531;BME280;30240;47.418;0.700;2023-08-07T01:32:17;100990.73486328125;;;12.82;82.0
44531;BME280;30240;47.418;0.700;2023-08-07T01:34:41;100993.57299804688;;;12.84;81.96
44531;BME280;30240;47.418;0.700;2023-08-07T01:37:06;100992.08374023438;;;12.9;81.9
44531;BME280;30240;47.418;0.700;2023-08-07T01:39:30;100992.0654296875;;;12.86;82.04
44531;BME280;30240;47.418;0.700;2023-08-07T01:41:54;100992.0654296875;;;12.86;82.04
44531;BME280;30240;47.418;0.700;2023-08-07T01:44:18;100995.41625976562;;;12.86;82.06
44531;BME280;30240;47.418;0.700;2023-08-07T01:46:43;100994.42138671875;;;12.89;81.83
44531;BME280;30240;47.418;0.700;2023-08-07T01:49:08;100995.03173828125;;;12.84;81.96
44531;BME280;30240;47.418;0.700;2023-08-07T01:51:34;100998.27270507812;;;12.72;82.09
44531;BME280;30240;47.418;0.700;2023-08-07T01:53:58;100998.27270507812;;;12.72;82.09
44531;BME280;30240;47.418;0.700;2023-08-07T01:56:23;100994.23217773438;;;12.69;82.28
44531;BME280;30240;47.418;0.700;2023-08-07T01:58:48;100994.25659179688;;;12.75;82.03
44531;BME280;30240;47.418;0.700;2023-08-07T02:01:13;100989.404296875;;;12.7;82.08
44531;BME280;30240;47.418;0.700;2023-08-07T02:03:38;100989.72778320312;;;12.59;82.36
44531;BME280;30240;47.418;0.700;2023-08-07T02:06:03;100989.72778320312;;;12.59;82.36
44531;BME280;30240;47.418;0.700;2023-08-07T02:08:28;100991.357421875;;;12.6;82.4
44531;BME280;30240;47.418;0.700;2023-08-07T02:10:54;100992.02880859375;;;12.53;82.3
44531;BME280;30240;47.418;0.700;2023-08-07T02:13:19;100990.11840820312;;;12.51;82.45
44531;BME280;30240;47.418;0.700;2023-08-07T02:15:44;100994.140625;;;12.44;82.56
44531;BME280;30240;47.418;0.700;2023-08-07T02:18:08;100993.2861328125;;;12.35;82.82
44531;BME280;30240;47.418;0.700;2023-08-07T02:20:34;100993.2861328125;;;12.35;82.82
44531;BME280;30240;47.418;0.700;2023-08-07T02:22:58;100988.07983398438;;;12.34;82.94
44531;BME280;30240;47.418;0.700;2023-08-07T02:25:24;100988.61083984375;;;12.31;83.06
44531;BME280;30240;47.418;0.700;2023-08-07T02:27:48;100991.20483398438;;;12.38;82.96
44531;BME280;30240;47.418;0.700;2023-08-07T02:30:13;100989.95361328125;;;12.4;82.84
44531;BME280;30240;47.418;0.700;2023-08-07T02:32:39;100989.95361328125;;;12.4;82.84
44531;BME280;30240;47.418;0.700;2023-08-07T02:35:04;100994.94018554688;;;12.4;82.81
44531;BME280;30240;47.418;0.700;2023-08-07T02:37:28;100993.34106445312;;;12.42;82.74
44531;BME280;30240;47.418;0.700;2023-08-07T02:39:54;100998.91357421875;;;12.41;82.9
44531;BME280;30240;47.418;0.700;2023-08-07T02:42:19;100994.76318359375;;;12.23;83.16
44531;BME280;30240;47.418;0.700;2023-08-07T02:44:44;100994.76318359375;;;12.23;83.16
44531;BME280;30240;47.418;0.700;2023-08-07T02:47:09;100994.08569335938;;;12.3;83.13
44531;BME280;30240;47.418;0.700;2023-08-07T02:49:34;100997.9248046875;;;12.33;82.98
44531;BME280;30240;47.418;0.700;2023-08-07T02:51:59;100990.68603515625;;;12.04;83.6
44531;BME280;30240;47.418;0.700;2023-08-07T02:54:24;100988.09204101562;;;12.09;83.69
44531;BME280;30240;47.418;0.700;2023-08-07T02:56:49;100988.09204101562;;;12.09;83.69
44531;BME280;30240;47.418;0.700;2023-08-07T02:59:14;100992.46826171875;;;12.14;83.63
44531;BME280;30240;47.418;0.700;2023-08-07T03:01:43;100990.6982421875;;;12.18;83.58
44531;BME280;30240;47.418;0.700;2023-08-07T03:04:04;100991.07666015625;;;12.07;83.89
44531;BME280;30240;47.418;0.700;2023-08-07T03:06:29;100997.56469726562;;;12.09;83.79
44531;BME280;30240;47.418;0.700;2023-08-07T03:08:54;100997.56469726562;;;12.09;83.79
44531;BME280;30240;47.418;0.700;2023-08-07T03:11:19;100995.11108398438;;;12.03;84.06
44531;BME280;30240;47.418;0.700;2023-08-07T03:13:45;100994.54956054688;;;12.01;84.3
44531;BME280;30240;47.418;0.700;2023-08-07T03:16:12;100995.4833984375;;;11.97;84.18
44531;BME280;30240;47.418;0.700;2023-08-07T03:18:37;101000.439453125;;;12.0;84.27
44531;BME280;30240;47.418;0.700;2023-08-07T03:20:59;101000.439453125;;;12.0;84.27
44531;BME280;30240;47.418;0.700;2023-08-07T03:23:24;101004.0283203125;;;12.03;84.16
44531;BME280;30240;47.418;0.700;2023-08-07T03:25:49;101001.83715820312;;;11.99;84.18
44531;BME280;30240;47.418;0.700;2023-08-07T03:28:14;101000.64086914062;;;12.0;84.46
44531;BME280;30240;47.418;0.700;2023-08-07T03:30:39;100995.458984375;;;11.93;84.43
44531;BME280;30240;47.418;0.700;2023-08-07T03:33:03;100995.458984375;;;11.93;84.43
44531;BME280;30240;47.418;0.700;2023-08-07T03:35:28;100993.9208984375;;;11.87;84.64
44531;BME280;30240;47.418;0.700;2023-08-07T03:37:54;100990.34423828125;;;11.79;84.84
44531;BME280;30240;47.418;0.700;2023-08-07T03:40:19;100993.37768554688;;;11.69;84.97
44531;BME280;30240;47.418;0.700;2023-08-07T03:42:44;100987.31079101562;;;11.65;85.4
44531;BME280;30240;47.418;0.700;2023-08-07T03:45:09;100985.3271484375;;;11.69;85.44
44531;BME280;30240;47.418;0.700;2023-08-07T03:47:34;100985.3271484375;;;11.69;85.44
44531;BME280;30240;47.418;0.700;2023-08-07T03:49:59;100982.39135742188;;;11.61;85.39
44531;BME280;30240;47.418;0.700;2023-08-07T03:52:25;100987.18872070312;;;11.69;85.42
44531;BME280;30240;47.418;0.700;2023-08-07T03:54:54;100984.99755859375;;;11.76;85.18
44531;BME280;30240;47.418;0.700;2023-08-07T03:57:14;100997.16186523438;;;11.69;85.03
44531;BME280;30240;47.418;0.700;2023-08-07T03:59:41;100997.16186523438;;;11.69;85.03
44531;BME280;30240;47.418;0.700;2023-08-07T04:02:07;100994.95849609375;;;11.66;84.86
44531;BME280;30240;47.418;0.700;2023-08-07T04:04:35;100990.78369140625;;;11.74;85.26
44531;BME280;30240;47.418;0.700;2023-08-07T04:06:54;100995.751953125;;;11.58;85.57
44531;BME280;30240;47.418;0.700;2023-08-07T04:09:19;100993.43872070312;;;11.52;86.06
44531;BME280;30240;47.418;0.700;2023-08-07T04:11:43;100993.43872070312;;;11.52;86.06
44531;BME280;30240;47.418;0.700;2023-08-07T04:14:09;100997.4853515625;;;11.44;86.27
44531;BME280;30240;47.418;0.700;2023-08-07T04:16:34;100999.54833984375;;;11.34;86.62
44531;BME280;30240;47.418;0.700;2023-08-07T04:18:58;100998.23608398438;;;11.38;86.52
44531;BME280;30240;47.418;0.700;2023-08-07T04:21:23;100999.74365234375;;;11.44;86.28
44531;BME280;30240;47.418;0.700;2023-08-07T04:23:48;100999.74365234375;;;11.44;86.28
44531;BME280;30240;47.418;0.700;2023-08-07T04:26:14;100999.23706054688;;;11.33;86.33
44531;BME280;30240;47.418;0.700;2023-08-07T04:28:38;100995.361328125;;;11.33;86.51
44531;BME280;30240;47.418;0.700;2023-08-07T04:31:03;101002.25219726562;;;11.33;86.54
44531;BME280;30240;47.418;0.700;2023-08-07T04:33:28;101000.52490234375;;;11.16;87.02
44531;BME280;30240;47.418;0.700;2023-08-07T04:35:53;101000.52490234375;;;11.16;87.02
44531;BME280;30240;47.418;0.700;2023-08-07T04:38:19;101001.123046875;;;11.15;87.07
44531;BME280;30240;47.418;0.700;2023-08-07T04:40:44;101006.67114257812;;;11.17;87.22
44531;BME280;30240;47.418;0.700;2023-08-07T04:43:08;101013.330078125;;;11.13;87.57
44531;BME280;30240;47.418;0.700;2023-08-07T04:45:33;101017.49877929688;;;11.06;87.71
44531;BME280;30240;47.418;0.700;2023-08-07T04:47:58;101017.49877929688;;;11.06;87.71
44531;BME280;30240;47.418;0.700;2023-08-07T04:50:23;101013.78784179688;;;11.12;87.8
44531;BME280;30240;47.418;0.700;2023-08-07T04:52:48;101011.52954101562;;;11.12;88.02
44531;BME280;30240;47.418;0.700;2023-08-07T04:55:13;101017.1875;;;11.03;88.13
44531;BME280;30240;47.418;0.700;2023-08-07T04:57:38;101012.86010742188;;;11.08;88.25
44531;BME280;30240;47.418;0.700;2023-08-07T05:00:04;101012.86010742188;;;11.08;88.25
44531;BME280;30240;47.418;0.700;2023-08-07T05:02:28;101017.16918945312;;;11.2;88.07
44531;BME280;30240;47.418;0.700;2023-08-07T05:04:53;101018.15795898438;;;11.15;87.97
44531;BME280;30240;47.418;0.700;2023-08-07T05:07:18;101018.44482421875;;;11.17;88.13
44531;BME280;30240;47.418;0.700;2023-08-07T05:09:43;101011.56005859375;;;11.24;88.25
44531;BME280;30240;47.418;0.700;2023-08-07T05:12:08;101011.56005859375;;;11.24;88.25
44531;BME280;30240;47.418;0.700;2023-08-07T05:14:33;101018.26782226562;;;11.22;88.09
44531;BME280;30240;47.418;0.700;2023-08-07T05:16:59;101019.11010742188;;;11.27;88.25
44531;BME280;30240;47.418;0.700;2023-08-07T05:19:23;101022.49755859375;;;11.23;88.27
44531;BME280;30240;47.418;0.700;2023-08-07T05:21:48;101021.84448242188;;;11.16;88.47
44531;BME280;30240;47.418;0.700;2023-08-07T05:24:14;101026.26342773438;;;11.19;88.34
44531;BME280;30240;47.418;0.700;2023-08-07T05:26:38;101026.26342773438;;;11.19;88.34
44531;BME280;30240;47.418;0.700;2023-08-07T05:29:03;101030.26733398438;;;11.26;88.46
44531;BME280;30240;47.418;0.700;2023-08-07T05:31:28;101031.8603515625;;;11.22;88.43
44531;BME280;30240;47.418;0.700;2023-08-07T05:33:53;101030.96313476562;;;11.2;88.71
44531;BME280;30240;47.418;0.700;2023-08-07T05:36:18;101032.12280273438;;;11.3;88.74
44531;BME280;30240;47.418;0.700;2023-08-07T05:38:43;101032.12280273438;;;11.3;88.74
44531;BME280;30240;47.418;0.700;2023-08-07T05:41:08;101032.2509765625;;;11.44;88.51
44531;BME280;30240;47.418;0.700;2023-08-07T05:43:33;101032.40356445312;;;11.52;88.48
44531;BME280;30240;47.418;0.700;2023-08-07T05:45:59;101034.21630859375;;;11.66;88.16
44531;BME280;30240;47.418;0.700;2023-08-07T05:48:23;101029.18701171875;;;11.79;87.76
44531;BME280;30240;47.418;0.700;2023-08-07T05:50:57;101029.18701171875;;;11.79;87.76
44531;BME280;30240;47.418;0.700;2023-08-07T05:53:19;101029.9560546875;;;11.71;87.7
44531;BME280;30240;47.418;0.700;2023-08-07T05:55:39;101031.25;;;11.99;87.68
44531;BME280;30240;47.418;0.700;2023-08-07T05:58:06;101029.0771484375;;;11.97;87.13
44531;BME280;30240;47.418;0.700;2023-08-07T06:00:31;101026.11083984375;;;12.27;86.79
44531;BME280;30240;47.418;0.700;2023-08-07T06:02:54;101026.11083984375;;;12.27;86.79
44531;BME280;30240;47.418;0.700;2023-08-07T06:05:19;101026.14135742188;;;12.35;86.17
44531;BME280;30240;47.418;0.700;2023-08-07T06:07:44;101027.11791992188;;;12.41;86.17
44531;BME280;30240;47.418;0.700;2023-08-07T06:10:10;101030.7861328125;;;12.44;86.07
44531;BME280;30240;47.418;0.700;2023-08-07T06:12:34;101031.8359375;;;12.48;85.97
44531;BME280;30240;47.418;0.700;2023-08-07T06:14:58;101031.8359375;;;12.48;85.97
44531;BME280;30240;47.418;0.700;2023-08-07T06:17:24;101030.09643554688;;;12.79;85.88
44531;BME280;30240;47.418;0.700;2023-08-07T06:19:49;101027.61840820312;;;12.89;85.48
44531;BME280;30240;47.418;0.700;2023-08-07T06:22:14;101033.48388671875;;;12.89;85.25
44531;BME280;30240;47.418;0.700;2023-08-07T06:24:38;101031.787109375;;;12.73;85.78
44531;BME280;30240;47.418;0.700;2023-08-07T06:27:04;101031.787109375;;;12.73;85.78
44531;BME280;30240;47.418;0.700;2023-08-07T06:29:29;101032.18994140625;;;12.93;85.5
44531;BME280;30240;47.418;0.700;2023-08-07T06:31:54;101032.23266601562;;;13.12;85.06
44531;BME280;30240;47.418;0.700;2023-08-07T06:34:19;101032.11059570312;;;13.1;85.13
44531;BME280;30240;47.418;0.700;2023-08-07T06:36:44;101029.06494140625;;;13.12;85.05
44531;BME280;30240;47.418;0.700;2023-08-07T06:39:09;101029.06494140625;;;13.12;85.05
44531;BME280;30240;47.418;0.700;2023-08-07T06:41:34;101028.13110351562;;;13.21;84.76
44531;BME280;30240;47.418;0.700;2023-08-07T06:43:59;101037.07885742188;;;13.34;84.93
44531;BME280;30240;47.418;0.700;2023-08-07T06:46:24;101038.3056640625;;;13.48;84.75
44531;BME280;30240;47.418;0.700;2023-08-07T06:48:49;101033.67309570312;;;13.59;84.67
44531;BME280;30240;47.418;0.700;2023-08-07T06:51:14;101037.41455078125;;;13.39;84.81
44531;BME280;30240;47.418;0.700;2023-08-07T06:53:39;101037.41455078125;;;13.39;84.81
44531;BME280;30240;47.418;0.700;2023-08-07T06:56:03;101032.58056640625;;;13.55;85.03
44531;BME280;30240;47.418;0.700;2023-08-07T06:58:28;101029.35180664062;;;13.85;84.4
44531;BME280;30240;47.418;0.700;2023-08-07T07:00:53;101030.3466796875;;;13.74;84.21
44531;BME280;30240;47.418;0.700;2023-08-07T07:03:19;101036.87744140625;;;14.22;83.89
44531;BME280;30240;47.418;0.700;2023-08-07T07:05:44;101036.87744140625;;;14.22;83.89
44531;BME280;30240;47.418;0.700;2023-08-07T07:08:09;101033.70971679688;;;14.28;83.75
44531;BME280;30240;47.418;0.700;2023-08-07T07:10:34;101033.38012695312;;;14.44;83.09
44531;BME280;30240;47.418;0.700;2023-08-07T07:12:59;101029.93774414062;;;14.57;83.1
44531;BME280;30240;47.418;0.700;2023-08-07T07:15:24;101033.50219726562;;;14.63;82.83
44531;BME280;30240;47.418;0.700;2023-08-07T07:17:48;101033.50219726562;;;14.63;82.83
44531;BME280;30240;47.418;0.700;2023-08-07T07:20:13;101037.70141601562;;;14.53;83.04
44531;BME280;30240;47.418;0.700;2023-08-07T07:22:39;101039.68505859375;;;15.01;82.81
44531;BME280;30240;47.418;0.700;2023-08-07T07:25:04;101039.68505859375;;;14.71;82.61
44531;BME280;30240;47.418;0.700;2023-08-07T07:27:29;101041.51000976562;;;14.96;83.05
44531;BME280;30240;47.418;0.700;2023-08-07T07:30:01;101041.51000976562;;;14.96;83.05
44531;BME280;30240;47.418;0.700;2023-08-07T07:32:19;101037.79907226562;;;15.34;82.38
44531;BME280;30240;47.418;0.700;2023-08-07T07:34:43;101037.109375;;;15.19;82.27
44531;BME280;30240;47.418;0.700;2023-08-07T07:37:09;101034.53369140625;;;15.27;82.34
44531;BME280;30240;47.418;0.700;2023-08-07T07:39:34;101037.53662109375;;;15.44;81.9
44531;BME280;30240;47.418;0.700;2023-08-07T07:41:58;101037.53662109375;;;15.44;81.9
44531;BME280;30240;47.418;0.700;2023-08-07T07:44:24;101038.65356445312;;;16.09;81.8
44531;BME280;30240;47.418;0.700;2023-08-07T07:46:49;101032.77587890625;;;16.34;80.86
44531;BME280;30240;47.418;0.700;2023-08-07T07:49:14;101032.51342773438;;;16.05;80.93
44531;BME280;30240;47.418;0.700;2023-08-07T07:51:39;101034.08813476562;;;16.33;80.97
44531;BME280;30240;47.418;0.700;2023-08-07T07:54:04;101034.08813476562;;;16.33;80.97
44531;BME280;30240;47.418;0.700;2023-08-07T07:56:29;101029.9072265625;;;16.41;80.43
44531;BME280;30240;47.418;0.700;2023-08-07T07:58:54;101037.51831054688;;;16.78;79.39
44531;BME280;30240;47.418;0.700;2023-08-07T08:01:19;101039.65454101562;;;17.06;79.91
44531;BME280;30240;47.418;0.700;2023-08-07T08:03:44;101035.56518554688;;;17.06;78.62
44531;BME280;30240;47.418;0.700;2023-08-07T08:06:09;101035.56518554688;;;17.06;78.62
44531;BME280;30240;47.418;0.700;2023-08-07T08:08:34;101041.87622070312;;;17.1;78.25
44531;BME280;30240;47.418;0.700;2023-08-07T08:10:58;101038.18969726562;;;17.02;78.58
44531;BME280;30240;47.418;0.700;2023-08-07T08:13:24;101035.60791015625;;;17.97;78.46
44531;BME280;30240;47.418;0.700;2023-08-07T08:15:49;101041.91284179688;;;17.48;78.05
44531;BME280;30240;47.418;0.700;2023-08-07T08:18:14;101041.91284179688;;;17.48;78.05
44531;BME280;30240;47.418;0.700;2023-08-07T08:20:39;101039.04418945312;;;17.52;77.25
44531;BME280;30240;47.418;0.700;2023-08-07T08:23:04;101039.43481445312;;;18.2;76.0
44531;BME280;30240;47.418;0.700;2023-08-07T08:25:29;101037.05444335938;;;18.32;76.3
44531;BME280;30240;47.418;0.700;2023-08-07T08:27:54;101038.97094726562;;;19.19;74.42
44531;BME280;30240;47.418;0.700;2023-08-07T08:30:19;101040.7958984375;;;19.25;72.97
44531;BME280;30240;47.418;0.700;2023-08-07T08:32:44;101040.7958984375;;;19.25;72.97
44531;BME280;30240;47.418;0.700;2023-08-07T08:35:09;101033.34350585938;;;18.48;74.15
44531;BME280;30240;47.418;0.700;2023-08-07T08:37:34;101032.763671875;;;19.19;72.65
44531;BME280;30240;47.418;0.700;2023-08-07T08:39:59;101037.2314453125;;;19.6;71.7
44531;BME280;30240;47.418;0.700;2023-08-07T08:42:24;101027.23388671875;;;19.23;72.77
44531;BME280;30240;47.418;0.700;2023-08-07T08:44:52;101027.23388671875;;;19.23;72.77
44531;BME280;30240;47.418;0.700;2023-08-07T08:47:14;101032.861328125;;;19.16;71.58
44531;BME280;30240;47.418;0.700;2023-08-07T08:49:46;101031.41479492188;;;19.89;71.98
44531;BME280;30240;47.418;0.700;2023-08-07T08:52:04;101025.2685546875;;;19.94;67.62
44531;BME280;30240;47.418;0.700;2023-08-07T08:54:29;101032.8857421875;;;19.11;70.47
44531;BME280;30240;47.418;0.700;2023-08-07T08:56:55;101032.8857421875;;;19.11;70.47
44531;BME280;30240;47.418;0.700;2023-08-07T08:59:19;101023.96850585938;;;20.19;68.4
44531;BME280;30240;47.418;0.700;2023-08-07T09:01:44;101022.95532226562;;;20.67;66.61
44531;BME280;30240;47.418;0.700;2023-08-07T09:04:09;101022.00927734375;;;21.89;61.6
44531;BME280;30240;47.418;0.700;2023-08-07T09:06:34;101027.001953125;;;21.22;63.43
44531;BME280;30240;47.418;0.700;2023-08-07T09:08:59;101027.001953125;;;21.22;63.43
44531;BME280;30240;47.418;0.700;2023-08-07T09:11:24;101044.00634765625;;;19.96;66.46
44531;BME280;30240;47.418;0.700;2023-08-07T09:13:49;101034.9853515625;;;20.88;64.87
44531;BME280;30240;47.418;0.700;2023-08-07T09:16:14;101029.77905273438;;;23.46;59.18
44531;BME280;30240;47.418;0.700;2023-08-07T09:18:39;101034.49096679688;;;20.5;59.44
44531;BME280;30240;47.418;0.700;2023-08-07T09:21:04;101034.49096679688;;;20.5;59.44
44531;BME280;30240;47.418;0.700;2023-08-07T09:23:29;101028.21655273438;;;20.3;63.06
44531;BME280;30240;47.418;0.700;2023-08-07T09:25:59;101025.03051757812;;;20.39;64.87
44531;BME280;30240;47.418;0.700;2023-08-07T09:28:19;101023.62670898438;;;22.93;59.49
44531;BME280;30240;47.418;0.700;2023-08-07T09:30:44;101029.88891601562;;;24.4;53.72
44531;BME280;30240;47.418;0.700;2023-08-07T09:33:09;101029.88891601562;;;24.4;53.72
44531;BME280;30240;47.418;0.700;2023-08-07T09:35:34;101022.07641601562;;;23.18;55.32
44531;BME280;30240;47.418;0.700;2023-08-07T09:37:59;101017.74291992188;;;21.97;56.13
44531;BME280;30240;47.418;0.700;2023-08-07T09:40:24;101023.38256835938;;;21.53;57.07
44531;BME280;30240;47.418;0.700;2023-08-07T09:42:50;101034.814453125;;;20.19;62.75
44531;BME280;30240;47.418;0.700;2023-08-07T09:45:19;101034.814453125;;;20.19;62.75
44531;BME280;30240;47.418;0.700;2023-08-07T09:47:38;101029.88891601562;;;22.72;60.01
44531;BME280;30240;47.418;0.700;2023-08-07T09:50:04;101031.97021484375;;;21.19;59.12
44531;BME280;30240;47.418;0.700;2023-08-07T09:52:28;101015.93627929688;;;22.86;54.93
44531;BME280;30240;47.418;0.700;2023-08-07T09:54:55;101011.09619140625;;;20.61;59.15
44531;BME280;30240;47.418;0.700;2023-08-07T09:57:19;101020.56274414062;;;20.15;60.49
44531;BME280;30240;47.418;0.700;2023-08-07T09:59:49;101020.56274414062;;;20.15;60.49
44531;BME280;30240;47.418;0.700;2023-08-07T10:02:09;101029.541015625;;;20.53;60.67
44531;BME280;30240;47.418;0.700;2023-08-07T10:04:34;101028.04565429688;;;21.61;58.27
44531;BME280;30240;47.418;0.700;2023-08-07T10:07:00;101020.08056640625;;;22.04;57.08
44531;BME280;30240;47.418;0.700;2023-08-07T10:09:24;101012.01782226562;;;19.91;60.48
44531;BME280;30240;47.418;0.700;2023-08-07T10:11:49;101012.01782226562;;;19.91;60.48
44531;BME280;30240;47.418;0.700;2023-08-07T10:14:14;101023.84643554688;;;20.81;58.5
44531;BME280;30240;47.418;0.700;2023-08-07T10:16:45;101017.1875;;;20.46;59.45
44531;BME280;30240;47.418;0.700;2023-08-07T10:19:04;101001.123046875;;;23.21;53.45
44531;BME280;30240;47.418;0.700;2023-08-07T10:21:29;101012.548828125;;;20.86;58.6
44531;BME280;30240;47.418;0.700;2023-08-07T10:23:59;101012.548828125;;;20.86;58.6
44531;BME280;30240;47.418;0.700;2023-08-07T10:26:24;101012.6708984375;;;20.09;60.35
44531;BME280;30240;47.418;0.700;2023-08-07T10:28:45;100999.20043945312;;;21.44;58.15
44531;BME280;30240;47.418;0.700;2023-08-07T10:31:10;101006.61010742188;;;22.22;53.8
44531;BME280;30240;47.418;0.700;2023-08-07T10:33:34;101009.17358398438;;;22.75;53.64
44531;BME280;30240;47.418;0.700;2023-08-07T10:35:58;101009.17358398438;;;22.75;53.64
44531;BME280;30240;47.418;0.700;2023-08-07T10:38:23;100997.15576171875;;;25.12;48.13
44531;BME280;30240;47.418;0.700;2023-08-07T10:41:01;100997.49755859375;;;25.64;45.88
44531;BME280;30240;47.418;0.700;2023-08-07T10:43:17;100994.83642578125;;;22.85;51.81
44531;BME280;30240;47.418;0.700;2023-08-07T10:45:39;100995.98999023438;;;22.4;52.66
44531;BME280;30240;47.418;0.700;2023-08-07T10:48:06;100995.98999023438;;;22.4;52.66
44531;BME280;30240;47.418;0.700;2023-08-07T10:50:29;101004.0771484375;;;23.65;50.22
44531;BME280;30240;47.418;0.700;2023-08-07T10:52:53;101006.89086914062;;;20.61;56.36
44531;BME280;30240;47.418;0.700;2023-08-07T10:55:18;101015.0634765625;;;22.51;52.64
44531;BME280;30240;47.418;0.700;2023-08-07T10:57:46;100997.18627929688;;;23.35;52.27
44531;BME280;30240;47.418;0.700;2023-08-07T11:00:12;100997.18627929688;;;23.35;52.27
44531;BME280;30240;47.418;0.700;2023-08-07T11:02:37;100993.41430664062;;;23.55;50.73
44531;BME280;30240;47.418;0.700;2023-08-07T11:04:59;100988.5009765625;;;24.59;48.43
44531;BME280;30240;47.418;0.700;2023-08-07T11:07:25;100988.8916015625;;;23.18;50.38
44531;BME280;30240;47.418;0.700;2023-08-07T11:09:49;100987.78076171875;;;24.04;48.63
44531;BME280;30240;47.418;0.700;2023-08-07T11:12:13;100987.78076171875;;;24.04;48.63
44531;BME280;30240;47.418;0.700;2023-08-07T11:14:40;100987.5;;;23.55;49.9
44531;BME280;30240;47.418;0.700;2023-08-07T11:17:04;100984.55200195312;;;24.36;47.52
44531;BME280;30240;47.418;0.700;2023-08-07T11:19:29;100995.4833984375;;;22.2;52.17
44531;BME280;30240;47.418;0.700;2023-08-07T11:21:54;101004.43115234375;;;21.5;53.47